Portada
METAR-TAF:

METAR-TAF

Aeroports :

Kunming, Xina

latitud: 25-01N, longitud: 102-41E, altitud: 1892 m

Observació

L'informe es va fer fa 31 minuts, a les 11:00 UTC
Vent 6 kt del Sud/Sud-Est
Temperatura 13°C
Humitat 51%
Pressió 1023 hPa
Visibilitat 10 km o més
sense núvols per sota de 1500 mi sense presència de cumulonimbus.

METAR: ZPPP 231100Z 15003MPS CAVOK 13/03 Q1023 NOSIG

Hora: 19:31 (11:31 UTC)

Pronòstic

L'informe es va fer fa 8 hores i 26 minuts, a les 03:05 UTC
Pronòstic vàlid del 23 a les 06 UTC al 24 a les 06 UTC
Vent 10 kt del Nord-Est
Visibilitat 10 km o més
Núvols disperses a una alçada de 3000 ft
Evolucionant progressivament
l' 23 a les 11 UTC al 23 a les 12 UTC
Vent 8 kt del Sud-Oest

TAF: ZPPP 230305Z 2306/2406 04005MPS 9999 SCT030 TX18/2307Z TN07/2323Z BECMG 2311/2312 22004MPS

Observacions i pronòstics meteorològics de més de 4000 aeroports (METAR i TAF).

Les estacions disponibles són els punts grocs i vermells al mapa.

Posi el ratolí al punt desitjat per veure el nom de l'estació.

Feu clic per veure les observacions i els pronòstics meteorològics.

Per canviar el mapa: feu clic els botons verds amb una creu de color negre per apropar; al botó verd amb un guió per allunyar la imatge; o en les fletxes verdes per a mapes adjacents.


METAR-TAF: